עמוד ראשי
METAR-TAF:

METAR-TAF

שדות תעופה :

Tampa International Airport

טמפה, פלורידה, ארצות הברית

קו רוחב: 27-57-41N, קו אורך: 082-32-25W, גובה: 8מטר

תצפית מזג אוויר נוכחית

הדו"ח נערך לפני 12דקות, בשעה 19:53 UTC
רוח 10קשר מכיוון מזרח/צפון-מזרח עם משבים עד 25קשר , משתנה בין צפון-מזרח ו מזרח/דרום-מזרח
טמפרטורת 33 צלסיוס
לחות 44%
לחץ 1015 hPa
ראות: 16.1קילומטר
עננים פזורים בגובה 5000רגל
עננים פזורים בגובה 25000רגל

METAR: KTPA 171953Z 07010G25KT 040V110 10SM SCT050 SCT250 33/19 A2997 RMK AO2 SLP146 T03330189

זמן: 16:05 (20:05 UTC)

תחזית

הדו"ח נערך לפני 2 שעות ו 45דקות, בשעה 17:20 UTC
תחזית בתוקף מ 17 ב 18 UTC עד 18 ב 24 UTC
רוח 10קשר מכיוון מזרח עם משבים עד 18קשר
ראות: 10קילומטר
עננים פזורים בגובה 4000רגל
עננים פזורים בגובה 25000רגל
מ 18 ב 0600UTC
רוח 7קשר מכיוון מזרח
ראות: 10קילומטר
מעט עננים בגובה 4000רגל
עננים פזורים בגובה 25000רגל
מ 18 ב 1300UTC
רוח 10קשר מכיוון מזרח עם משבים עד 18קשר
ראות: 10קילומטר
עננים פזורים בגובה 25000רגל

TAF: KTPA 171720Z 1718/1824 08010G18KT P6SM SCT040 SCT250 FM180600 08007KT P6SM FEW040 SCT250 FM181300 08010G18KT P6SM SCT250

תצפיות ותחזיות מזג אוויר לגבי יותר מ- 4,000 שדות תעופה ברחבי העולם. דוחות METAR ו- TAF.

התחנות הזמינות מסומנות בנקודות צהובות ואדומות על גבי המפה.

העבר את העכבר לנקודה הצבעונית על מנת לראות את שם התחנה.

לאחר מכן, לחץ כדי לראות את תוכן ואת תחזיות מזג האוויר.

כדי לשנות את המפה: לחץ על הכפתורים הירוקים עם הפלוס השחור כדי להתקרב; על הכפתור הירוק עם המקף כדי להתרחק; או בחיצים הירוקים למפות סמוכות.


METAR-TAF: